createdAt,value
2022-10-17T00:00:11.485Z,70.77
2022-10-17T00:02:39.062Z,70.68
2022-10-17T00:05:06.964Z,70.60
2022-10-17T00:07:34.660Z,70.80
2022-10-17T00:10:02.308Z,70.77
2022-10-17T00:12:29.925Z,70.87
2022-10-17T00:14:58.837Z,70.88
2022-10-17T00:17:26.805Z,70.89
2022-10-17T00:19:54.586Z,70.52
2022-10-17T00:22:22.193Z,69.85
2022-10-17T00:24:49.737Z,70.34
2022-10-17T00:27:17.347Z,70.29
2022-10-17T00:29:49.247Z,70.75
2022-10-17T00:32:18.688Z,70.68
2022-10-17T00:34:46.552Z,70.88
2022-10-17T00:37:14.128Z,70.75
2022-10-17T00:39:41.713Z,70.79
2022-10-17T00:42:11.815Z,70.70
2022-10-17T00:45:00.570Z,70.60
2022-10-17T00:47:30.404Z,70.54
2022-10-17T00:49:58.534Z,70.72
2022-10-17T00:52:29.563Z,70.57
2022-10-17T00:55:01.397Z,70.96
2022-10-17T00:57:31.793Z,70.59
2022-10-17T01:00:01.637Z,71.11
2022-10-17T01:02:30.845Z,69.13
2022-10-17T01:05:00.440Z,68.08
2022-10-17T01:07:33.285Z,67.01
2022-10-17T01:10:05.653Z,67.47
2022-10-17T01:12:42.688Z,66.66
2022-10-17T01:15:15.488Z,66.82
2022-10-17T01:17:56.545Z,67.68
2022-10-17T01:20:56.066Z,68.44
2022-10-17T01:23:34.915Z,69.32
2022-10-17T01:26:09.282Z,69.94
2022-10-17T01:29:14.736Z,69.85
2022-10-17T01:31:47.630Z,69.52
2022-10-17T01:34:20.515Z,67.32
2022-10-17T01:36:54.311Z,66.08
2022-10-17T01:39:31.795Z,66.31
2022-10-17T01:42:07.309Z,65.75
2022-10-17T01:44:41.598Z,66.44
2022-10-17T01:47:14.667Z,67.43
2022-10-17T01:49:45.917Z,67.60
2022-10-17T01:52:18.078Z,68.28
2022-10-17T01:54:48.919Z,68.87
2022-10-17T01:57:22.845Z,66.61
2022-10-17T01:59:53.673Z,65.76
2022-10-17T02:02:24.241Z,66.40
2022-10-17T02:04:53.573Z,67.51
2022-10-17T02:07:21.207Z,67.82
2022-10-17T02:09:48.890Z,68.34
2022-10-17T02:12:34.774Z,68.37
2022-10-17T02:15:26.243Z,68.00
2022-10-17T02:18:05.089Z,68.26
2022-10-17T02:20:41.908Z,68.11
2022-10-17T02:23:14.849Z,67.80
2022-10-17T02:25:47.221Z,66.21
2022-10-17T02:28:22.062Z,65.02
2022-10-17T02:30:55.165Z,65.81
2022-10-17T02:33:28.850Z,66.79
2022-10-17T02:36:02.135Z,67.44
2022-10-17T02:38:30.712Z,68.08
2022-10-17T02:40:58.819Z,67.23
2022-10-17T02:43:26.685Z,65.98
2022-10-17T02:45:54.406Z,66.45
2022-10-17T02:48:31.859Z,66.68
2022-10-17T02:51:06.591Z,67.16
2022-10-17T02:53:41.421Z,67.64
2022-10-17T02:56:17.556Z,66.95
2022-10-17T02:58:48.552Z,67.28
2022-10-17T03:01:18.235Z,67.79
2022-10-17T03:03:47.344Z,66.79
2022-10-17T03:06:15.189Z,67.44
2022-10-17T03:08:42.810Z,67.52
2022-10-17T03:11:10.422Z,67.21
2022-10-17T03:13:39.826Z,67.80
2022-10-17T03:16:07.873Z,68.45
2022-10-17T03:18:35.476Z,68.88
2022-10-17T03:21:04.530Z,69.16
2022-10-17T03:23:32.126Z,69.61
2022-10-17T03:25:59.735Z,69.81
2022-10-17T03:28:27.823Z,68.67
2022-10-17T03:30:55.413Z,68.85
2022-10-17T03:33:23.369Z,68.66
2022-10-17T03:35:50.932Z,68.98
2022-10-17T03:38:19.875Z,69.03
2022-10-17T03:40:56.095Z,69.65
2022-10-17T03:43:23.650Z,69.47
2022-10-17T03:45:51.302Z,69.17
2022-10-17T03:48:18.934Z,69.02
2022-10-17T03:50:46.750Z,69.03
2022-10-17T03:53:14.666Z,69.57
2022-10-17T03:55:43.593Z,69.07
2022-10-17T03:58:11.170Z,69.14
2022-10-17T04:00:38.755Z,68.54
2022-10-17T04:03:06.370Z,68.18
2022-10-17T04:05:33.909Z,68.54
2022-10-17T04:08:03.991Z,68.87
2022-10-17T04:10:32.497Z,69.00
2022-10-17T04:13:01.413Z,69.33
2022-10-17T04:15:29.038Z,69.71
2022-10-17T04:17:56.648Z,70.03
2022-10-17T04:20:24.269Z,69.85
2022-10-17T04:22:51.830Z,68.69
2022-10-17T04:25:19.463Z,68.12
2022-10-17T04:27:47.012Z,67.62
2022-10-17T04:30:16.118Z,67.36
2022-10-17T04:32:43.714Z,67.26
2022-10-17T04:35:11.301Z,67.93
2022-10-17T04:37:38.845Z,68.49
2022-10-17T04:40:07.593Z,69.01
2022-10-17T04:42:35.194Z,69.42
2022-10-17T04:45:02.792Z,70.01
2022-10-17T04:47:32.130Z,70.14
2022-10-17T04:49:59.742Z,70.16
2022-10-17T04:52:27.812Z,70.12
2022-10-17T04:54:55.687Z,70.48
2022-10-17T04:57:23.767Z,70.50
2022-10-17T04:59:51.343Z,70.15
2022-10-17T05:02:19.029Z,70.22
2022-10-17T05:04:47.985Z,70.48
2022-10-17T05:07:15.568Z,71.22
2022-10-17T05:09:43.149Z,70.51
2022-10-17T05:12:10.685Z,70.45
2022-10-17T05:14:38.324Z,70.45
2022-10-17T05:17:05.893Z,70.73
2022-10-17T05:19:33.478Z,70.59
2022-10-17T05:22:02.614Z,70.41
2022-10-17T05:24:30.274Z,70.74
2022-10-17T05:26:57.829Z,70.85
2022-10-17T05:29:25.420Z,71.05
2022-10-17T05:31:53.053Z,71.39
2022-10-17T05:34:20.778Z,70.58
2022-10-17T05:36:48.463Z,70.70
2022-10-17T05:39:19.600Z,70.65
2022-10-17T05:41:47.410Z,70.59
2022-10-17T05:44:15.017Z,70.37
2022-10-17T05:46:42.611Z,70.90
2022-10-17T05:49:15.064Z,70.45
2022-10-17T05:51:58.278Z,70.56
2022-10-17T05:54:28.080Z,70.81
2022-10-17T05:56:56.479Z,70.68
2022-10-17T05:59:25.800Z,70.77
2022-10-17T06:01:53.789Z,70.77
2022-10-17T06:04:21.389Z,70.68
2022-10-17T06:06:48.947Z,70.37
2022-10-17T06:09:16.810Z,70.75
2022-10-17T06:11:45.748Z,70.51
2022-10-17T06:14:13.710Z,70.53
2022-10-17T06:16:41.571Z,70.88
2022-10-17T06:19:09.134Z,70.74
2022-10-17T06:21:38.597Z,70.66
2022-10-17T06:24:06.648Z,71.18
2022-10-17T06:26:34.613Z,70.96
2022-10-17T06:29:03.619Z,70.89
2022-10-17T06:31:31.458Z,70.02
2022-10-17T06:33:59.350Z,69.94
2022-10-17T06:36:26.944Z,68.84
2022-10-17T06:38:54.583Z,68.40
2022-10-17T06:41:22.283Z,67.15
2022-10-17T06:43:49.966Z,65.20
2022-10-17T06:46:20.341Z,66.30
2022-10-17T06:48:47.980Z,66.59
2022-10-17T06:51:15.569Z,67.22
2022-10-17T06:53:43.173Z,67.97
2022-10-17T06:56:11.299Z,66.29
2022-10-17T06:58:40.769Z,65.99
2022-10-17T07:01:10.000Z,64.13
2022-10-17T07:03:39.226Z,63.90
2022-10-17T07:06:07.240Z,63.82
2022-10-17T07:08:34.857Z,63.38
2022-10-17T07:11:10.582Z,63.69
2022-10-17T07:13:39.323Z,62.61
2022-10-17T07:16:07.935Z,61.84
2022-10-17T07:18:35.556Z,62.00
2022-10-17T07:21:04.961Z,62.98
2022-10-17T07:23:34.278Z,61.85
2022-10-17T07:26:02.543Z,61.80
2022-10-17T07:28:30.266Z,62.07
2022-10-17T07:30:57.820Z,61.12
2022-10-17T07:33:25.455Z,61.88
2022-10-17T07:35:53.228Z,61.72
2022-10-17T07:38:22.279Z,61.52
2022-10-17T07:40:55.793Z,59.57
2022-10-17T07:43:23.816Z,59.94
2022-10-17T07:45:51.890Z,60.78
2022-10-17T07:48:20.601Z,61.02
2022-10-17T07:50:48.248Z,61.11
2022-10-17T07:53:16.258Z,60.56
2022-10-17T07:55:46.387Z,60.33
2022-10-17T07:58:15.056Z,60.81
2022-10-17T08:00:43.060Z,60.44
2022-10-17T08:03:11.848Z,61.34
2022-10-17T08:05:39.427Z,61.87
2022-10-17T08:08:07.090Z,62.01
2022-10-17T08:10:34.791Z,61.88
2022-10-17T08:13:04.085Z,62.02
2022-10-17T08:15:32.154Z,62.86
2022-10-17T08:18:00.540Z,62.73
2022-10-17T08:20:28.261Z,60.82
2022-10-17T08:22:56.478Z,59.92
2022-10-17T08:25:24.882Z,60.46
2022-10-17T08:27:52.636Z,59.54
2022-10-17T08:30:21.541Z,59.77
2022-10-17T08:32:49.122Z,60.72
2022-10-17T08:35:16.770Z,59.84
2022-10-17T08:37:44.400Z,59.85
2022-10-17T08:40:18.324Z,59.62
2022-10-17T08:43:05.309Z,60.01
2022-10-17T08:45:39.419Z,60.29
2022-10-17T08:48:12.024Z,59.92
2022-10-17T08:50:44.795Z,59.71
2022-10-17T08:53:19.043Z,59.95
2022-10-17T08:55:48.385Z,60.49
2022-10-17T08:58:18.792Z,58.51
2022-10-17T09:00:55.270Z,58.60
2022-10-17T09:03:39.545Z,57.93
2022-10-17T09:06:18.819Z,58.43
2022-10-17T09:08:58.898Z,58.95
2022-10-17T09:11:42.796Z,57.51
2022-10-17T09:14:26.425Z,57.57
2022-10-17T09:17:09.134Z,57.23
2022-10-17T09:19:40.556Z,57.26
2022-10-17T09:22:13.555Z,56.85
2022-10-17T09:24:45.135Z,57.04
2022-10-17T09:27:21.396Z,58.05
2022-10-17T09:29:51.744Z,59.19
2022-10-17T09:32:25.058Z,58.00
2022-10-17T09:34:53.404Z,57.27
2022-10-17T09:37:26.868Z,57.88
2022-10-17T09:39:54.491Z,58.47
2022-10-17T09:42:27.183Z,58.78
2022-10-17T09:45:02.885Z,58.04
2022-10-17T09:47:35.818Z,58.40
2022-10-17T09:50:03.500Z,57.66
2022-10-17T09:52:35.211Z,57.35
2022-10-17T09:55:07.055Z,57.99
2022-10-17T09:57:54.421Z,55.84
2022-10-17T10:00:26.379Z,55.81
2022-10-17T10:03:09.820Z,55.18
2022-10-17T10:05:37.657Z,55.57
2022-10-17T10:08:07.588Z,55.18
2022-10-17T10:10:35.264Z,56.12
2022-10-17T10:13:06.215Z,55.86
2022-10-17T10:15:37.801Z,55.60
2022-10-17T10:21:10.861Z,55.46
2022-10-17T10:23:40.454Z,56.37
2022-10-17T10:26:21.581Z,54.75
2022-10-17T10:29:02.043Z,54.34
2022-10-17T10:31:33.482Z,54.24
2022-10-17T10:34:15.263Z,54.19
2022-10-17T10:36:51.279Z,54.43
2022-10-17T10:39:29.267Z,53.72
2022-10-17T10:41:56.978Z,52.98
2022-10-17T10:44:27.150Z,52.73
2022-10-17T10:47:09.011Z,53.90
2022-10-17T10:49:40.258Z,55.19
2022-10-17T10:52:09.733Z,53.50
2022-10-17T10:54:41.948Z,53.16
2022-10-17T10:57:19.857Z,52.83
2022-10-17T10:59:59.189Z,54.06
2022-10-17T11:02:33.501Z,55.55
2022-10-17T11:05:07.370Z,55.57
2022-10-17T11:07:40.067Z,55.26
2022-10-17T11:10:17.751Z,55.96
2022-10-17T11:12:51.588Z,56.70
2022-10-17T11:15:25.169Z,54.65
2022-10-17T11:17:58.635Z,55.23
2022-10-17T11:20:35.129Z,55.84
2022-10-17T11:23:19.706Z,55.65
2022-10-17T11:25:49.482Z,56.44
2022-10-17T11:28:18.922Z,53.05
2022-10-17T11:30:51.279Z,51.78
2022-10-17T11:33:25.131Z,52.27
2022-10-17T11:35:58.935Z,52.90
2022-10-17T11:38:41.802Z,51.63
2022-10-17T11:41:13.560Z,51.42
2022-10-17T11:43:47.174Z,51.53
2022-10-17T11:46:18.998Z,49.22
2022-10-17T11:48:59.705Z,48.30
2022-10-17T11:54:23.120Z,48.83
2022-10-17T11:56:54.734Z,48.77
2022-10-17T11:59:55.418Z,47.53
2022-10-17T12:02:34.089Z,47.94
2022-10-17T12:05:10.929Z,49.01
2022-10-17T12:07:46.489Z,45.80
2022-10-17T12:10:26.139Z,45.66
2022-10-17T12:12:53.731Z,47.40
2022-10-17T12:15:31.925Z,47.11
2022-10-17T12:18:02.630Z,46.14
2022-10-17T12:20:33.109Z,47.33
2022-10-17T12:23:21.398Z,48.08
2022-10-17T12:25:51.764Z,47.43
2022-10-17T12:28:27.505Z,46.58
2022-10-17T12:31:00.738Z,46.33
2022-10-17T12:33:35.861Z,46.94
2022-10-17T12:36:47.051Z,45.55
2022-10-17T12:39:49.189Z,45.18
2022-10-17T12:42:49.675Z,45.55
2022-10-17T12:45:49.505Z,45.68
2022-10-17T12:48:50.660Z,46.54
2022-10-17T12:51:36.400Z,46.44
2022-10-17T12:54:12.368Z,46.53
2022-10-17T12:56:43.689Z,47.46
2022-10-17T12:59:16.828Z,48.24
2022-10-17T13:01:47.817Z,47.19
2022-10-17T13:04:16.231Z,45.63
2022-10-17T13:06:47.972Z,44.69
2022-10-17T13:09:24.908Z,43.98
2022-10-17T13:11:54.953Z,44.20
2022-10-17T13:14:24.380Z,43.87
2022-10-17T13:16:54.553Z,43.86
2022-10-17T13:19:24.210Z,44.52
2022-10-17T13:21:52.234Z,44.77
2022-10-17T13:24:30.034Z,43.43
2022-10-17T13:26:59.692Z,41.79
2022-10-17T13:29:28.720Z,40.86
2022-10-17T13:32:00.293Z,40.25
2022-10-17T13:34:30.186Z,40.07
2022-10-17T13:37:03.765Z,38.76
2022-10-17T13:39:54.368Z,37.88
2022-10-17T13:42:27.850Z,37.02
2022-10-17T13:44:57.139Z,36.36
2022-10-17T13:47:26.993Z,37.48
2022-10-17T13:49:55.887Z,36.66
2022-10-17T13:52:27.086Z,36.75
2022-10-17T13:54:55.312Z,38.13
2022-10-17T13:57:27.240Z,35.58
2022-10-17T13:59:58.380Z,36.09
2022-10-17T14:02:28.028Z,36.64
2022-10-17T14:05:16.692Z,38.26
2022-10-17T14:08:12.072Z,39.07
2022-10-17T14:10:41.284Z,40.37
2022-10-17T14:13:21.936Z,41.28
2022-10-17T14:15:50.388Z,40.78
2022-10-17T14:18:21.467Z,41.41
2022-10-17T14:21:32.171Z,41.25
2022-10-17T14:23:40.768Z,39.89
2022-10-17T14:26:11.791Z,40.91
2022-10-17T14:28:41.884Z,42.00
2022-10-17T14:31:20.752Z,39.64
2022-10-17T14:33:51.015Z,41.32
2022-10-17T14:36:20.317Z,41.89
2022-10-17T14:38:52.767Z,42.25
2022-10-17T14:44:22.199Z,42.61
2022-10-17T14:46:55.032Z,41.26
2022-10-17T14:49:32.850Z,42.38
2022-10-17T14:52:24.636Z,41.29
2022-10-17T14:54:52.483Z,43.45
2022-10-17T14:57:24.200Z,44.20
2022-10-17T14:59:54.820Z,43.73
2022-10-17T15:02:23.510Z,44.75
2022-10-17T15:04:51.131Z,43.58
2022-10-17T15:07:19.172Z,42.51
2022-10-17T15:09:49.269Z,41.07
2022-10-17T15:12:18.987Z,42.83
2022-10-17T15:14:47.881Z,42.77
2022-10-17T15:17:20.727Z,44.45
2022-10-17T15:19:49.018Z,45.17
2022-10-17T15:22:18.123Z,46.24
2022-10-17T15:24:46.629Z,46.35
2022-10-17T15:27:19.188Z,47.33
2022-10-17T15:29:49.321Z,47.00
2022-10-17T15:32:18.459Z,47.60
2022-10-17T15:34:46.193Z,47.30
2022-10-17T15:37:20.850Z,45.82
2022-10-17T15:39:53.214Z,46.30
2022-10-17T15:42:22.253Z,47.04
2022-10-17T15:44:50.436Z,47.44
2022-10-17T15:47:26.237Z,47.77
2022-10-17T15:49:54.501Z,48.25
2022-10-17T15:52:22.575Z,48.22
2022-10-17T15:54:50.428Z,48.87
2022-10-17T15:57:20.215Z,48.87
2022-10-17T15:59:48.798Z,49.47
2022-10-17T16:02:18.144Z,49.63
2022-10-17T16:04:48.329Z,49.93
2022-10-17T16:07:16.136Z,49.75
2022-10-17T16:09:43.747Z,49.63
2022-10-17T16:12:14.153Z,50.11
2022-10-17T16:14:41.857Z,50.46
2022-10-17T16:17:11.901Z,50.46
2022-10-17T16:19:39.861Z,50.46
2022-10-17T16:22:18.984Z,50.96
2022-10-17T16:24:46.635Z,50.66
2022-10-17T16:27:14.252Z,49.87
2022-10-17T16:29:41.851Z,49.54
2022-10-17T16:32:10.986Z,50.14
2022-10-17T16:34:38.547Z,50.61
2022-10-17T16:37:06.109Z,50.77
2022-10-17T16:39:35.023Z,50.97
2022-10-17T16:42:02.637Z,51.31
2022-10-17T16:44:30.200Z,51.61
2022-10-17T16:46:57.805Z,51.73
2022-10-17T16:49:25.391Z,52.01
2022-10-17T16:51:52.956Z,51.95
2022-10-17T16:54:20.558Z,52.17
2022-10-17T16:56:50.369Z,52.53
2022-10-17T16:59:17.939Z,52.77
2022-10-17T17:01:45.507Z,52.90
2022-10-17T17:04:13.247Z,53.01
2022-10-17T17:06:41.013Z,53.12
2022-10-17T17:09:10.279Z,53.51
2022-10-17T17:11:38.666Z,53.43
2022-10-17T17:14:08.137Z,54.05
2022-10-17T17:16:36.286Z,53.95
2022-10-17T17:19:06.835Z,54.16
2022-10-17T17:21:35.753Z,54.04
2022-10-17T17:24:04.520Z,54.49
2022-10-17T17:26:35.835Z,54.69
2022-10-17T17:29:04.183Z,54.68
2022-10-17T17:31:35.450Z,55.02
2022-10-17T17:34:04.019Z,54.96
2022-10-17T17:36:34.217Z,55.19
2022-10-17T17:39:04.966Z,55.32
2022-10-17T17:41:33.594Z,55.37
2022-10-17T17:44:02.184Z,55.44
2022-10-17T17:46:29.819Z,55.86
2022-10-17T17:48:58.733Z,55.85
2022-10-17T17:51:29.445Z,56.10
2022-10-17T17:53:57.758Z,56.13
2022-10-17T17:56:27.473Z,56.33
2022-10-17T17:58:56.982Z,56.63
2022-10-17T18:01:27.580Z,56.81
2022-10-17T18:03:56.665Z,56.95
2022-10-17T18:06:26.131Z,57.33
2022-10-17T18:08:57.723Z,57.33
2022-10-17T18:11:26.069Z,57.24
2022-10-17T18:13:57.453Z,57.39
2022-10-17T18:16:25.615Z,57.63
2022-10-17T18:18:53.323Z,57.68
2022-10-17T18:21:21.074Z,57.88
2022-10-17T18:23:51.771Z,57.78
2022-10-17T18:26:20.531Z,58.31
2022-10-17T18:28:49.456Z,58.51
2022-10-17T18:31:23.934Z,58.42
2022-10-17T18:33:53.348Z,58.80
2022-10-17T18:36:21.609Z,58.84
2022-10-17T18:38:50.907Z,58.91
2022-10-17T18:41:20.813Z,59.30
2022-10-17T18:43:49.702Z,58.66
2022-10-17T18:46:19.263Z,58.92
2022-10-17T18:48:47.952Z,58.72
2022-10-17T18:51:17.990Z,59.00
2022-10-17T18:53:48.157Z,59.10
2022-10-17T18:56:18.783Z,59.29
2022-10-17T18:58:46.771Z,59.30
2022-10-17T19:01:17.544Z,59.24
2022-10-17T19:03:46.531Z,59.37
2022-10-17T19:06:16.877Z,59.33
2022-10-17T19:08:44.945Z,59.42
2022-10-17T19:11:14.100Z,59.51
2022-10-17T19:13:43.845Z,59.72
2022-10-17T19:16:17.310Z,59.77
2022-10-17T19:18:45.065Z,59.49
2022-10-17T19:21:12.929Z,59.52
2022-10-17T19:23:40.565Z,59.70
2022-10-17T19:26:10.003Z,60.05
2022-10-17T19:28:41.501Z,60.10
2022-10-17T19:31:15.308Z,59.86
2022-10-17T19:33:45.332Z,59.69
2022-10-17T19:36:14.287Z,59.90
2022-10-17T19:38:41.887Z,59.89
2022-10-17T19:41:11.029Z,59.84
2022-10-17T19:43:39.498Z,60.14
2022-10-17T19:46:09.280Z,60.71
2022-10-17T19:48:39.134Z,60.95
2022-10-17T19:51:07.929Z,60.89
2022-10-17T19:53:35.723Z,60.71
2022-10-17T19:56:03.664Z,60.72
2022-10-17T19:58:31.514Z,60.91
2022-10-17T20:01:01.621Z,61.58
2022-10-17T20:03:30.059Z,61.95
2022-10-17T20:05:59.071Z,62.05
2022-10-17T20:11:03.375Z,62.66
2022-10-17T20:13:31.043Z,62.58
2022-10-17T20:15:59.631Z,62.36
2022-10-17T20:18:27.930Z,60.56
2022-10-17T20:20:56.136Z,60.73
2022-10-17T20:23:25.100Z,60.44
2022-10-17T20:26:06.698Z,61.01
2022-10-17T20:28:41.127Z,61.56
2022-10-17T20:31:10.121Z,61.62
2022-10-17T20:33:37.766Z,61.64
2022-10-17T20:36:06.255Z,61.67
2022-10-17T20:38:35.217Z,61.19
2022-10-17T20:41:03.477Z,61.25
2022-10-17T20:43:31.418Z,61.42
2022-10-17T20:46:08.554Z,61.64
2022-10-17T20:48:43.431Z,61.94
2022-10-17T20:51:12.345Z,61.69
2022-10-17T20:53:41.228Z,61.50
2022-10-17T20:56:14.399Z,61.46
2022-10-17T20:58:41.977Z,61.20
2022-10-17T21:01:11.131Z,61.80
2022-10-17T21:03:42.529Z,62.15
2022-10-17T21:06:13.694Z,62.45
2022-10-17T21:08:42.873Z,62.63
2022-10-17T21:11:12.567Z,63.07
2022-10-17T21:13:40.446Z,63.34
2022-10-17T21:16:09.739Z,63.52
2022-10-17T21:18:37.801Z,63.28
2022-10-17T21:21:14.477Z,61.68
2022-10-17T21:23:45.338Z,60.77
2022-10-17T21:26:13.779Z,60.96
2022-10-17T21:28:42.692Z,60.04
2022-10-17T21:31:12.858Z,60.72
2022-10-17T21:33:41.446Z,61.08
2022-10-17T21:36:09.867Z,61.05
2022-10-17T21:38:38.177Z,61.52
2022-10-17T21:41:09.450Z,61.76
2022-10-17T21:43:38.573Z,61.21
2022-10-17T21:46:07.859Z,60.44
2022-10-17T21:48:36.266Z,60.86
2022-10-17T21:51:05.622Z,60.91
2022-10-17T21:53:33.801Z,61.34
2022-10-17T21:56:02.213Z,61.46
2022-10-17T21:58:31.379Z,62.55
2022-10-17T22:01:04.846Z,62.97
2022-10-17T22:03:34.062Z,63.44
2022-10-17T22:06:12.830Z,62.78
2022-10-17T22:08:49.575Z,61.66
2022-10-17T22:11:19.084Z,61.36
2022-10-17T22:13:48.165Z,61.49
2022-10-17T22:16:17.698Z,61.91
2022-10-17T22:18:45.324Z,61.99
2022-10-17T22:21:15.100Z,62.05
2022-10-17T22:23:43.593Z,62.23
2022-10-17T22:26:11.958Z,63.28
2022-10-17T22:28:41.760Z,63.95
2022-10-17T22:31:11.042Z,63.88
2022-10-17T22:33:40.550Z,64.08
2022-10-17T22:36:09.083Z,63.85
2022-10-17T22:38:37.139Z,63.22
2022-10-17T22:41:05.135Z,62.90
2022-10-17T22:43:33.288Z,62.78
2022-10-17T22:46:03.545Z,62.49
2022-10-17T22:48:33.154Z,62.67
2022-10-17T22:51:01.530Z,62.54
2022-10-17T22:53:29.956Z,62.92
2022-10-17T22:55:59.527Z,62.40
2022-10-17T22:58:27.730Z,62.41
2022-10-17T23:00:56.107Z,62.98
2022-10-17T23:03:25.130Z,63.47
2022-10-17T23:05:54.239Z,63.80
2022-10-17T23:08:22.080Z,64.17
2022-10-17T23:10:49.949Z,64.58
2022-10-17T23:13:18.748Z,64.68
2022-10-17T23:15:46.759Z,64.95
2022-10-17T23:18:14.530Z,65.52
2022-10-17T23:20:42.105Z,65.71
2022-10-17T23:23:11.017Z,65.49
2022-10-17T23:25:38.583Z,65.23
2022-10-17T23:28:08.064Z,65.43
2022-10-17T23:30:36.184Z,65.33
2022-10-17T23:33:04.170Z,65.06
2022-10-17T23:35:32.681Z,65.32
2022-10-17T23:38:00.568Z,65.68
2022-10-17T23:40:29.546Z,65.79
2022-10-17T23:42:57.112Z,65.82
2022-10-17T23:45:24.741Z,65.66
2022-10-17T23:47:52.377Z,66.15
2022-10-17T23:50:20.068Z,66.61
2022-10-17T23:52:47.719Z,66.79
2022-10-17T23:55:15.342Z,67.13
2022-10-17T23:57:44.737Z,67.17
